createdAt,value
2019-03-30T00:01:26.309Z,10.20
2019-03-30T00:03:56.241Z,10.20
2019-03-30T00:06:27.187Z,10.20
2019-03-30T00:08:57.419Z,10.20
2019-03-30T00:11:27.628Z,10.20
2019-03-30T00:13:57.590Z,10.20
2019-03-30T00:16:27.525Z,10.20
2019-03-30T00:18:59.745Z,10.20
2019-03-30T00:21:30.443Z,10.20
2019-03-30T00:24:00.620Z,10.20
2019-03-30T00:26:30.576Z,10.20
2019-03-30T00:29:00.815Z,10.20
2019-03-30T00:31:30.827Z,10.20
2019-03-30T00:34:02.340Z,10.20
2019-03-30T00:36:32.250Z,10.20
2019-03-30T00:39:03.194Z,10.20
2019-03-30T00:41:33.955Z,10.20
2019-03-30T00:44:03.856Z,10.20
2019-03-30T00:46:35.445Z,10.10
2019-03-30T00:49:05.345Z,10.10
2019-03-30T00:51:36.087Z,10.10
2019-03-30T00:54:07.654Z,10.10
2019-03-30T00:56:37.785Z,10.10
2019-03-30T00:59:07.663Z,10.00
2019-03-30T01:01:40.625Z,10.00
2019-03-30T01:04:11.524Z,10.00
2019-03-30T01:06:42.850Z,10.00
2019-03-30T01:09:15.551Z,10.00
2019-03-30T01:11:46.449Z,10.00
2019-03-30T01:14:17.909Z,9.90
2019-03-30T01:16:47.831Z,9.90
2019-03-30T01:19:17.541Z,10.00
2019-03-30T01:21:48.594Z,10.00
2019-03-30T01:24:18.583Z,9.90
2019-03-30T01:26:49.954Z,9.90
2019-03-30T01:29:20.463Z,9.90
2019-03-30T01:31:50.434Z,9.90
2019-03-30T01:34:20.346Z,9.90
2019-03-30T01:36:50.725Z,9.90
2019-03-30T01:39:21.069Z,9.90
2019-03-30T01:41:51.022Z,9.80
2019-03-30T01:44:21.899Z,9.80
2019-03-30T01:46:52.327Z,9.80
2019-03-30T01:49:23.600Z,9.80
2019-03-30T01:51:53.483Z,9.80
2019-03-30T01:54:23.412Z,9.80
2019-03-30T01:56:53.624Z,9.80
2019-03-30T01:59:23.533Z,9.70
2019-03-30T02:01:53.460Z,9.70
2019-03-30T02:04:23.320Z,9.70
2019-03-30T02:06:54.068Z,9.70
2019-03-30T02:09:25.665Z,9.60
2019-03-30T02:11:56.028Z,9.70
2019-03-30T02:14:25.838Z,9.60
2019-03-30T02:16:55.658Z,9.60
2019-03-30T02:19:25.618Z,9.60
2019-03-30T02:21:55.915Z,9.60
2019-03-30T02:24:26.364Z,9.50
2019-03-30T02:26:56.199Z,9.50
2019-03-30T02:29:26.690Z,9.50
2019-03-30T02:31:57.105Z,9.50
2019-03-30T02:34:28.484Z,9.50
2019-03-30T02:36:58.981Z,9.40
2019-03-30T02:39:29.987Z,9.40
2019-03-30T02:41:59.994Z,9.40
2019-03-30T02:44:30.632Z,9.40
2019-03-30T02:47:01.500Z,9.40
2019-03-30T02:49:31.442Z,9.30
2019-03-30T02:52:01.513Z,9.30
2019-03-30T02:54:31.410Z,9.30
2019-03-30T02:57:02.521Z,9.30
2019-03-30T02:59:32.433Z,9.20
2019-03-30T03:02:02.324Z,9.20
2019-03-30T03:04:32.266Z,9.20
2019-03-30T03:07:03.426Z,9.20
2019-03-30T03:09:33.355Z,9.20
2019-03-30T03:12:03.674Z,9.10
2019-03-30T03:14:33.765Z,9.10
2019-03-30T03:17:03.640Z,9.10
2019-03-30T03:19:34.335Z,9.10
2019-03-30T03:22:04.865Z,9.10
2019-03-30T03:24:34.760Z,9.10
2019-03-30T03:27:04.666Z,9.10
2019-03-30T03:29:34.486Z,9.00
2019-03-30T03:32:05.147Z,9.00
2019-03-30T03:34:34.953Z,9.00
2019-03-30T03:37:06.339Z,9.00
2019-03-30T03:39:36.263Z,8.90
2019-03-30T03:42:06.290Z,8.90
2019-03-30T03:44:36.167Z,8.90
2019-03-30T03:47:06.091Z,8.90
2019-03-30T03:49:35.940Z,8.90
2019-03-30T03:52:08.744Z,8.90
2019-03-30T03:54:40.971Z,8.80
2019-03-30T03:57:14.307Z,8.80
2019-03-30T03:59:45.662Z,8.80
2019-03-30T04:02:18.390Z,8.80
2019-03-30T04:04:51.619Z,8.70
2019-03-30T04:07:24.127Z,8.70
2019-03-30T04:09:57.045Z,8.70
2019-03-30T04:12:30.263Z,8.70
2019-03-30T04:15:03.175Z,8.70
2019-03-30T04:17:32.999Z,8.60
2019-03-30T04:20:03.292Z,8.60
2019-03-30T04:22:33.694Z,8.60
2019-03-30T04:25:03.752Z,8.60
2019-03-30T04:27:33.580Z,8.60
2019-03-30T04:30:03.817Z,8.60
2019-03-30T04:32:33.605Z,8.50
2019-03-30T04:35:03.853Z,8.50
2019-03-30T04:37:33.836Z,8.50
2019-03-30T04:40:04.457Z,8.50
2019-03-30T04:42:34.940Z,8.50
2019-03-30T04:45:07.542Z,8.40
2019-03-30T04:47:37.475Z,8.40
2019-03-30T04:50:08.208Z,8.40
2019-03-30T04:52:38.818Z,8.40
2019-03-30T04:55:09.051Z,8.30
2019-03-30T04:57:38.996Z,8.30
2019-03-30T05:00:10.660Z,8.30
2019-03-30T05:02:40.425Z,8.30
2019-03-30T05:05:10.740Z,8.30
2019-03-30T05:07:41.612Z,8.30
2019-03-30T05:10:11.732Z,8.20
2019-03-30T05:12:41.483Z,8.20
2019-03-30T05:15:11.598Z,8.20
2019-03-30T05:17:47.623Z,8.20
2019-03-30T05:20:13.535Z,8.10
2019-03-30T05:22:43.659Z,8.10
2019-03-30T05:25:15.027Z,8.10
2019-03-30T05:27:44.874Z,8.00
2019-03-30T05:30:15.329Z,8.00
2019-03-30T05:32:45.145Z,8.00
2019-03-30T05:35:14.999Z,8.00
2019-03-30T05:37:44.866Z,7.90
2019-03-30T05:40:14.740Z,7.90
2019-03-30T05:42:44.541Z,8.00
2019-03-30T05:45:14.722Z,7.90
2019-03-30T05:47:44.816Z,7.90
2019-03-30T05:50:14.628Z,7.90
2019-03-30T05:52:44.435Z,7.90
2019-03-30T05:55:15.046Z,7.90
2019-03-30T05:57:45.027Z,7.90
2019-03-30T06:00:17.093Z,7.90
2019-03-30T06:02:47.788Z,8.00
2019-03-30T06:05:17.545Z,8.00
2019-03-30T06:07:51.149Z,8.10
2019-03-30T06:10:21.051Z,8.10
2019-03-30T06:12:50.887Z,8.10
2019-03-30T06:15:22.128Z,8.20
2019-03-30T06:17:53.866Z,8.30
2019-03-30T06:20:24.372Z,8.40
2019-03-30T06:22:55.239Z,8.50
2019-03-30T06:25:25.192Z,8.50
2019-03-30T06:27:55.060Z,8.60
2019-03-30T06:30:28.423Z,8.70
2019-03-30T06:32:58.483Z,8.80
2019-03-30T06:35:28.395Z,8.90
2019-03-30T06:37:58.208Z,9.00
2019-03-30T06:40:28.015Z,9.00
2019-03-30T06:42:57.851Z,9.20
2019-03-30T06:45:27.692Z,9.20
2019-03-30T06:47:57.572Z,9.30
2019-03-30T06:50:27.508Z,9.40
2019-03-30T06:52:58.900Z,9.40
2019-03-30T06:55:28.908Z,9.50
2019-03-30T06:57:58.764Z,9.60
2019-03-30T07:00:34.428Z,9.70
2019-03-30T07:03:06.680Z,9.80
2019-03-30T07:05:41.908Z,9.90
2019-03-30T07:08:16.241Z,9.90
2019-03-30T07:10:46.686Z,9.90
2019-03-30T07:13:16.919Z,10.00
2019-03-30T07:15:48.853Z,10.10
2019-03-30T07:18:19.633Z,10.20
2019-03-30T07:20:50.569Z,10.40
2019-03-30T07:23:20.440Z,10.60
2019-03-30T07:25:51.459Z,10.70
2019-03-30T07:28:21.637Z,10.80
2019-03-30T07:30:51.557Z,10.80
2019-03-30T07:33:21.433Z,10.90
2019-03-30T07:35:51.703Z,10.90
2019-03-30T07:38:21.627Z,10.90
2019-03-30T07:40:51.492Z,11.00
2019-03-30T07:43:21.618Z,11.20
2019-03-30T07:45:51.949Z,11.30
2019-03-30T07:48:21.795Z,11.50
2019-03-30T07:50:51.622Z,11.70
2019-03-30T07:53:26.635Z,12.00
2019-03-30T07:56:07.685Z,12.30
2019-03-30T07:58:26.999Z,12.40
2019-03-30T08:00:56.829Z,12.40
2019-03-30T08:03:26.834Z,12.30
2019-03-30T08:05:56.878Z,12.40
2019-03-30T08:08:26.728Z,12.30
2019-03-30T08:10:58.750Z,12.40
2019-03-30T08:13:28.738Z,12.40
2019-03-30T08:15:58.520Z,12.40
2019-03-30T08:18:29.076Z,12.60
2019-03-30T08:21:00.280Z,12.60
2019-03-30T08:23:40.135Z,12.70
2019-03-30T08:26:01.804Z,12.80
2019-03-30T08:28:31.675Z,12.70
2019-03-30T08:31:01.587Z,12.80
2019-03-30T08:33:33.037Z,12.90
2019-03-30T08:36:02.851Z,13.10
2019-03-30T08:38:32.825Z,13.40
2019-03-30T08:41:02.750Z,13.50
2019-03-30T08:43:32.557Z,13.60
2019-03-30T08:46:02.393Z,13.70
2019-03-30T08:48:32.466Z,13.80
2019-03-30T08:51:03.144Z,13.90
2019-03-30T08:53:33.094Z,13.90
2019-03-30T08:56:03.696Z,14.00
2019-03-30T08:58:36.409Z,14.10
2019-03-30T09:01:06.799Z,14.40
2019-03-30T09:03:36.672Z,14.70
2019-03-30T09:06:06.630Z,14.90
2019-03-30T09:08:36.570Z,15.30
2019-03-30T09:11:06.403Z,15.50
2019-03-30T09:13:37.072Z,15.70
2019-03-30T09:16:06.905Z,15.70
2019-03-30T09:18:39.304Z,15.80
2019-03-30T09:21:10.153Z,16.00
2019-03-30T09:23:40.703Z,16.10
2019-03-30T09:26:11.320Z,16.20
2019-03-30T09:28:41.149Z,16.40
2019-03-30T09:31:11.006Z,16.60
2019-03-30T09:33:40.813Z,16.80
2019-03-30T09:36:10.691Z,16.80
2019-03-30T09:38:40.618Z,16.90
2019-03-30T09:41:12.480Z,17.00
2019-03-30T09:43:42.368Z,16.90
2019-03-30T09:46:12.265Z,17.00
2019-03-30T09:48:42.952Z,16.90
2019-03-30T09:51:12.933Z,17.10
2019-03-30T09:53:42.904Z,17.20
2019-03-30T09:56:13.079Z,17.20
2019-03-30T09:58:43.040Z,17.20
2019-03-30T10:01:13.361Z,17.40
2019-03-30T10:03:43.220Z,17.60
2019-03-30T10:06:13.034Z,17.60
2019-03-30T10:08:42.919Z,17.60
2019-03-30T10:11:12.806Z,17.80
2019-03-30T10:13:43.542Z,17.80
2019-03-30T10:16:13.397Z,17.80
2019-03-30T10:18:43.129Z,18.00
2019-03-30T10:21:13.629Z,18.30
2019-03-30T10:23:43.535Z,18.40
2019-03-30T10:26:13.358Z,18.40
2019-03-30T10:28:43.201Z,18.30
2019-03-30T10:31:13.009Z,18.40
2019-03-30T10:33:42.874Z,18.50
2019-03-30T10:36:12.850Z,18.70
2019-03-30T10:38:42.688Z,18.90
2019-03-30T10:41:13.031Z,19.00
2019-03-30T10:43:42.929Z,18.80
2019-03-30T10:46:12.719Z,18.80
2019-03-30T10:48:43.129Z,19.10
2019-03-30T10:51:12.974Z,19.20
2019-03-30T10:53:42.764Z,19.30
2019-03-30T10:56:12.590Z,19.10
2019-03-30T10:58:42.400Z,19.10
2019-03-30T11:01:13.355Z,19.30
2019-03-30T11:03:43.315Z,19.30
2019-03-30T11:06:13.170Z,19.20
2019-03-30T11:08:42.875Z,19.00
2019-03-30T11:11:12.595Z,19.20
2019-03-30T11:13:42.532Z,19.50
2019-03-30T11:16:14.036Z,19.60
2019-03-30T11:18:43.796Z,19.80
2019-03-30T11:21:14.468Z,19.70
2019-03-30T11:23:45.052Z,19.80
2019-03-30T11:26:15.163Z,20.10
2019-03-30T11:28:45.070Z,20.30
2019-03-30T11:31:14.822Z,20.50
2019-03-30T11:33:44.650Z,20.80
2019-03-30T11:36:14.482Z,20.60
2019-03-30T11:38:45.083Z,20.70
2019-03-30T11:41:15.568Z,21.00
2019-03-30T11:43:45.350Z,21.30
2019-03-30T11:46:15.162Z,21.40
2019-03-30T11:48:45.001Z,21.20
2019-03-30T11:51:14.721Z,20.80
2019-03-30T11:53:44.543Z,20.80
2019-03-30T11:56:14.334Z,21.20
2019-03-30T11:58:44.075Z,21.40
2019-03-30T12:01:13.826Z,21.70
2019-03-30T12:03:43.661Z,21.90
2019-03-30T12:06:13.386Z,22.20
2019-03-30T12:08:43.815Z,22.30
2019-03-30T12:11:14.395Z,22.60
2019-03-30T12:13:44.245Z,22.00
2019-03-30T12:16:13.954Z,22.30
2019-03-30T12:18:43.763Z,22.20
2019-03-30T12:21:13.596Z,22.30
2019-03-30T12:23:43.415Z,22.60
2019-03-30T12:26:13.260Z,22.40
2019-03-30T12:28:43.081Z,22.60
2019-03-30T12:31:12.951Z,22.40
2019-03-30T12:33:42.804Z,22.60
2019-03-30T12:36:12.779Z,22.70
2019-03-30T12:38:42.735Z,22.90
2019-03-30T12:41:12.580Z,23.10
2019-03-30T12:43:43.880Z,23.00
2019-03-30T12:46:13.749Z,23.00
2019-03-30T12:48:43.556Z,23.00
2019-03-30T12:51:13.346Z,23.10
2019-03-30T12:53:49.981Z,22.90
2019-03-30T12:56:14.768Z,23.10
2019-03-30T12:58:44.496Z,23.00
2019-03-30T13:01:15.603Z,22.90
2019-03-30T13:03:45.654Z,23.10
2019-03-30T13:06:15.500Z,23.30
2019-03-30T13:08:45.415Z,23.40
2019-03-30T13:11:15.223Z,23.30
2019-03-30T13:13:44.981Z,23.10
2019-03-30T13:16:14.710Z,23.00
2019-03-30T13:18:44.559Z,23.00
2019-03-30T13:21:14.280Z,23.10
2019-03-30T13:23:44.899Z,23.20
2019-03-30T13:26:14.644Z,23.30
2019-03-30T13:28:44.458Z,23.50
2019-03-30T13:31:14.289Z,23.30
2019-03-30T13:33:43.870Z,22.70
2019-03-30T13:36:14.754Z,22.60
2019-03-30T13:38:44.540Z,22.30
2019-03-30T13:41:14.603Z,22.30
2019-03-30T13:43:45.015Z,22.10
2019-03-30T13:46:14.940Z,22.00
2019-03-30T13:48:44.877Z,21.90
2019-03-30T13:51:14.596Z,21.80
2019-03-30T13:53:44.404Z,21.70
2019-03-30T13:56:17.534Z,21.60
2019-03-30T13:58:45.567Z,21.60
2019-03-30T14:01:16.298Z,21.50
2019-03-30T14:03:46.003Z,21.40
2019-03-30T14:06:16.070Z,21.30
2019-03-30T14:08:46.625Z,21.30
2019-03-30T14:11:16.446Z,21.20
2019-03-30T14:13:46.294Z,21.10
2019-03-30T14:16:16.005Z,21.10
2019-03-30T14:18:46.306Z,21.10
2019-03-30T14:21:16.274Z,21.00
2019-03-30T14:23:46.021Z,20.90
2019-03-30T14:26:30.440Z,20.80
2019-03-30T14:28:48.104Z,20.80
2019-03-30T14:31:17.898Z,20.90
2019-03-30T14:33:47.720Z,20.80
2019-03-30T14:36:17.364Z,20.80
2019-03-30T14:38:47.203Z,20.90
2019-03-30T14:41:16.977Z,21.00
2019-03-30T14:43:47.023Z,21.00
2019-03-30T14:46:16.934Z,20.90
2019-03-30T14:48:46.721Z,20.90
2019-03-30T14:51:16.478Z,20.90
2019-03-30T14:53:46.291Z,21.00
2019-03-30T14:56:16.043Z,21.00
2019-03-30T14:58:46.114Z,20.90
2019-03-30T15:01:16.089Z,20.90
2019-03-30T15:03:45.890Z,20.90
2019-03-30T15:06:15.690Z,21.00
2019-03-30T15:08:45.415Z,20.90
2019-03-30T15:11:15.153Z,20.80
2019-03-30T15:13:44.998Z,20.60
2019-03-30T15:16:15.028Z,20.50
2019-03-30T15:18:44.841Z,20.30
2019-03-30T15:21:14.710Z,20.30
2019-03-30T15:23:44.556Z,20.40
2019-03-30T15:26:14.483Z,20.50
2019-03-30T15:28:44.383Z,20.50
2019-03-30T15:31:14.195Z,20.50
2019-03-30T15:33:43.935Z,20.60
2019-03-30T15:36:13.752Z,20.50
2019-03-30T15:38:44.401Z,20.40
2019-03-30T15:41:14.175Z,20.40
2019-03-30T15:43:43.987Z,20.40
2019-03-30T15:46:14.438Z,20.30
2019-03-30T15:48:44.309Z,20.20
2019-03-30T15:51:15.063Z,20.10
2019-03-30T15:53:45.399Z,20.00
2019-03-30T15:56:15.215Z,20.00
2019-03-30T15:58:45.072Z,19.80
2019-03-30T16:01:14.859Z,19.80
2019-03-30T16:03:44.704Z,19.70
2019-03-30T16:06:14.626Z,19.60
2019-03-30T16:08:44.430Z,19.50
2019-03-30T16:11:14.288Z,19.50
2019-03-30T16:13:43.956Z,19.40
2019-03-30T16:16:13.714Z,19.40
2019-03-30T16:18:43.542Z,19.30
2019-03-30T16:21:13.487Z,19.30
2019-03-30T16:23:43.740Z,19.20
2019-03-30T16:26:14.488Z,19.20
2019-03-30T16:28:44.342Z,19.10
2019-03-30T16:31:15.854Z,19.00
2019-03-30T16:33:47.001Z,18.90
2019-03-30T16:36:17.065Z,18.90
2019-03-30T16:38:48.054Z,18.80
2019-03-30T16:41:19.318Z,18.70
2019-03-30T16:43:49.104Z,18.70
2019-03-30T16:46:20.868Z,18.60
2019-03-30T16:48:51.343Z,18.50
2019-03-30T16:51:21.295Z,18.50
2019-03-30T16:53:51.840Z,18.40
2019-03-30T16:56:23.181Z,18.40
2019-03-30T16:58:53.056Z,18.30
2019-03-30T17:01:23.985Z,18.30
2019-03-30T17:03:54.736Z,18.20
2019-03-30T17:06:26.988Z,18.10
2019-03-30T17:08:57.427Z,18.10
2019-03-30T17:11:31.063Z,18.00
2019-03-30T17:14:02.823Z,17.90
2019-03-30T17:16:32.865Z,17.90
2019-03-30T17:19:02.789Z,17.80
2019-03-30T17:21:36.069Z,17.80
2019-03-30T17:24:06.144Z,17.70
2019-03-30T17:26:37.427Z,17.60
2019-03-30T17:29:09.759Z,17.50
2019-03-30T17:31:41.574Z,17.50
2019-03-30T17:34:11.368Z,17.40
2019-03-30T17:36:41.362Z,17.40
2019-03-30T17:39:13.028Z,17.30
2019-03-30T17:41:42.906Z,17.20
2019-03-30T17:44:14.291Z,17.10
2019-03-30T17:46:46.980Z,17.10
2019-03-30T17:49:19.780Z,17.00
2019-03-30T17:51:53.802Z,17.00
2019-03-30T17:54:22.256Z,16.90
2019-03-30T17:56:52.122Z,16.90
2019-03-30T17:59:23.860Z,16.80
2019-03-30T18:01:54.026Z,16.80
2019-03-30T18:04:25.508Z,16.70
2019-03-30T18:07:03.672Z,16.60
2019-03-30T18:09:35.038Z,16.60
2019-03-30T18:12:07.344Z,16.50
2019-03-30T18:14:37.900Z,16.50
2019-03-30T18:17:07.866Z,16.40
2019-03-30T18:19:39.775Z,16.30
2019-03-30T18:22:09.616Z,16.30
2019-03-30T18:24:39.477Z,16.20
2019-03-30T18:27:10.097Z,16.20
2019-03-30T18:29:40.040Z,16.10
2019-03-30T18:32:09.857Z,16.00
2019-03-30T18:34:41.107Z,15.90
2019-03-30T18:37:12.144Z,15.90
2019-03-30T18:39:43.395Z,15.80
2019-03-30T18:42:13.438Z,15.80
2019-03-30T18:44:45.034Z,15.70
2019-03-30T18:47:14.855Z,15.70
2019-03-30T18:49:44.858Z,15.60
2019-03-30T18:52:16.948Z,15.60
2019-03-30T18:54:48.641Z,15.50
2019-03-30T18:57:20.174Z,15.50
2019-03-30T18:59:50.290Z,15.40
2019-03-30T19:02:20.849Z,15.40
2019-03-30T19:04:51.956Z,15.30
2019-03-30T19:07:22.087Z,15.30
2019-03-30T19:09:52.793Z,15.20
2019-03-30T19:12:23.118Z,15.10
2019-03-30T19:14:53.076Z,15.10
2019-03-30T19:17:23.108Z,15.10
2019-03-30T19:19:53.023Z,15.00
2019-03-30T19:22:22.933Z,14.90
2019-03-30T19:24:52.696Z,14.90
2019-03-30T19:27:23.344Z,14.80
2019-03-30T19:29:53.195Z,14.80
2019-03-30T19:32:24.788Z,14.80
2019-03-30T19:34:54.660Z,14.70
2019-03-30T19:37:24.471Z,14.70
2019-03-30T19:39:55.213Z,14.70
2019-03-30T19:42:25.733Z,14.60
2019-03-30T19:44:55.679Z,14.50
2019-03-30T19:47:25.656Z,14.50
2019-03-30T19:49:55.853Z,14.50
2019-03-30T19:52:39.185Z,14.40
2019-03-30T19:54:57.376Z,14.40
2019-03-30T19:57:27.855Z,14.40
2019-03-30T20:00:00.360Z,14.30
2019-03-30T20:02:30.275Z,14.30
2019-03-30T20:05:02.958Z,14.20
2019-03-30T20:07:33.524Z,14.20
2019-03-30T20:10:08.514Z,14.10
2019-03-30T20:12:39.461Z,14.00
2019-03-30T20:15:10.896Z,14.00
2019-03-30T20:17:40.708Z,13.90
2019-03-30T20:20:12.577Z,13.90
2019-03-30T20:22:42.584Z,13.90
2019-03-30T20:25:12.674Z,13.80
2019-03-30T20:27:42.632Z,13.80
2019-03-30T20:30:14.346Z,13.70
2019-03-30T20:32:44.249Z,13.70
2019-03-30T20:35:16.676Z,13.70
2019-03-30T20:37:46.578Z,13.60
2019-03-30T20:40:16.502Z,13.60
2019-03-30T20:42:46.344Z,13.50
2019-03-30T20:45:17.197Z,13.40
2019-03-30T20:47:46.951Z,13.40
2019-03-30T20:50:17.259Z,13.30
2019-03-30T20:52:47.113Z,13.30
2019-03-30T20:55:17.213Z,13.30
2019-03-30T20:57:47.951Z,13.20
2019-03-30T21:00:18.470Z,13.10
2019-03-30T21:02:49.217Z,13.00
2019-03-30T21:05:19.663Z,13.00
2019-03-30T21:07:49.480Z,13.00
2019-03-30T21:10:19.609Z,12.90
2019-03-30T21:12:49.751Z,12.80
2019-03-30T21:15:21.170Z,12.90
2019-03-30T21:17:51.149Z,12.80
2019-03-30T21:20:21.004Z,12.80
2019-03-30T21:22:51.459Z,12.70
2019-03-30T21:25:21.310Z,12.70
2019-03-30T21:27:51.182Z,12.70
2019-03-30T21:30:21.219Z,12.60
2019-03-30T21:32:51.094Z,12.60
2019-03-30T21:35:21.150Z,12.50
2019-03-30T21:37:50.939Z,12.50
2019-03-30T21:40:20.800Z,12.40
2019-03-30T21:46:02.028Z,12.40
2019-03-30T21:48:31.899Z,12.30
2019-03-30T21:51:02.741Z,12.30
2019-03-30T21:53:32.648Z,12.20
2019-03-30T21:56:02.665Z,12.20
2019-03-30T21:58:32.435Z,12.10
2019-03-30T22:01:02.858Z,12.10
2019-03-30T22:03:32.725Z,12.10
2019-03-30T22:06:03.355Z,12.00
2019-03-30T22:08:34.028Z,12.00
2019-03-30T22:11:06.770Z,12.00
2019-03-30T22:13:37.499Z,12.00
2019-03-30T22:16:07.326Z,11.90
2019-03-30T22:18:37.163Z,11.90
2019-03-30T22:21:06.987Z,11.80
2019-03-30T22:23:36.750Z,11.80
2019-03-30T22:26:06.731Z,11.70
2019-03-30T22:28:36.693Z,11.70
2019-03-30T22:31:06.642Z,11.70
2019-03-30T22:33:36.414Z,11.70
2019-03-30T22:36:06.348Z,11.60
2019-03-30T22:38:36.284Z,11.60
2019-03-30T22:41:06.983Z,11.60
2019-03-30T22:43:36.797Z,11.60
2019-03-30T22:46:07.753Z,11.60
2019-03-30T22:48:37.793Z,11.50
2019-03-30T22:51:14.938Z,11.50
2019-03-30T22:53:44.751Z,11.50
2019-03-30T22:56:31.262Z,11.50
2019-03-30T22:59:01.065Z,11.50
2019-03-30T23:01:32.939Z,11.50
2019-03-30T23:04:04.403Z,11.40
2019-03-30T23:06:34.364Z,11.40
2019-03-30T23:09:13.507Z,11.30
2019-03-30T23:11:47.573Z,11.30
2019-03-30T23:14:19.723Z,11.30
2019-03-30T23:16:50.088Z,11.30
2019-03-30T23:19:21.509Z,11.30
2019-03-30T23:21:51.410Z,11.20
2019-03-30T23:24:23.138Z,11.20
2019-03-30T23:26:53.882Z,11.20
2019-03-30T23:29:23.667Z,11.20
2019-03-30T23:31:53.995Z,11.10
2019-03-30T23:34:25.081Z,11.10
2019-03-30T23:36:54.970Z,11.10
2019-03-30T23:39:24.873Z,11.10
2019-03-30T23:42:15.582Z,11.10
2019-03-30T23:44:47.174Z,11.10
2019-03-30T23:47:23.338Z,11.10
2019-03-30T23:49:57.192Z,11.10
2019-03-30T23:52:29.330Z,11.10
2019-03-30T23:55:01.331Z,11.10
2019-03-30T23:57:31.213Z,11.10
